sensor_id;sensor_type;location;lat;lon;timestamp;temperature;humidity
11818;DHT22;5966;52.402;5.322;2022-09-09T00:00:38;17.20;99.90
11818;DHT22;5966;52.402;5.322;2022-09-09T00:03:12;17.20;99.90
11818;DHT22;5966;52.402;5.322;2022-09-09T00:05:46;17.20;99.90
11818;DHT22;5966;52.402;5.322;2022-09-09T00:08:20;17.20;99.90
11818;DHT22;5966;52.402;5.322;2022-09-09T00:10:54;17.20;99.90
11818;DHT22;5966;52.402;5.322;2022-09-09T00:13:33;17.20;99.90
11818;DHT22;5966;52.402;5.322;2022-09-09T00:16:07;17.20;99.90
11818;DHT22;5966;52.402;5.322;2022-09-09T00:18:46;17.10;99.90
11818;DHT22;5966;52.402;5.322;2022-09-09T00:21:18;17.10;99.90
11818;DHT22;5966;52.402;5.322;2022-09-09T00:23:49;17.20;99.90
11818;DHT22;5966;52.402;5.322;2022-09-09T00:26:24;17.20;99.90
11818;DHT22;5966;52.402;5.322;2022-09-09T00:29:00;17.10;99.90
11818;DHT22;5966;52.402;5.322;2022-09-09T00:31:31;17.10;99.90
11818;DHT22;5966;52.402;5.322;2022-09-09T00:34:03;17.10;99.90
11818;DHT22;5966;52.402;5.322;2022-09-09T00:36:34;17.10;99.90
11818;DHT22;5966;52.402;5.322;2022-09-09T00:39:03;17.10;99.90
11818;DHT22;5966;52.402;5.322;2022-09-09T00:41:47;17.10;99.90
11818;DHT22;5966;52.402;5.322;2022-09-09T00:44:25;17.10;99.90
11818;DHT22;5966;52.402;5.322;2022-09-09T00:47:09;17.10;99.90
11818;DHT22;5966;52.402;5.322;2022-09-09T00:49:50;17.10;99.90
11818;DHT22;5966;52.402;5.322;2022-09-09T00:52:32;17.10;99.90
11818;DHT22;5966;52.402;5.322;2022-09-09T00:55:10;17.10;99.90
11818;DHT22;5966;52.402;5.322;2022-09-09T00:57:44;17.10;99.90
11818;DHT22;5966;52.402;5.322;2022-09-09T01:00:19;17.10;99.90
11818;DHT22;5966;52.402;5.322;2022-09-09T01:02:56;17.10;99.90
11818;DHT22;5966;52.402;5.322;2022-09-09T01:05:34;17.10;99.90
11818;DHT22;5966;52.402;5.322;2022-09-09T01:08:11;17.10;99.90
11818;DHT22;5966;52.402;5.322;2022-09-09T01:10:48;17.10;99.90
11818;DHT22;5966;52.402;5.322;2022-09-09T01:13:22;17.10;99.90
11818;DHT22;5966;52.402;5.322;2022-09-09T01:15:51;17.00;99.90
11818;DHT22;5966;52.402;5.322;2022-09-09T01:18:29;17.00;99.90
11818;DHT22;5966;52.402;5.322;2022-09-09T01:21:04;17.00;99.90
11818;DHT22;5966;52.402;5.322;2022-09-09T01:23:54;17.00;99.90
11818;DHT22;5966;52.402;5.322;2022-09-09T01:26:28;17.00;99.90
11818;DHT22;5966;52.402;5.322;2022-09-09T01:28:58;17.00;99.90
11818;DHT22;5966;52.402;5.322;2022-09-09T01:31:28;17.00;99.90
11818;DHT22;5966;52.402;5.322;2022-09-09T01:33:58;16.90;99.90
11818;DHT22;5966;52.402;5.322;2022-09-09T01:36:31;16.90;99.90
11818;DHT22;5966;52.402;5.322;2022-09-09T01:39:00;16.80;99.90
11818;DHT22;5966;52.402;5.322;2022-09-09T01:41:30;16.80;99.90
11818;DHT22;5966;52.402;5.322;2022-09-09T01:43:58;16.80;99.90
11818;DHT22;5966;52.402;5.322;2022-09-09T01:46:28;16.70;99.90
11818;DHT22;5966;52.402;5.322;2022-09-09T01:48:57;16.80;99.90
11818;DHT22;5966;52.402;5.322;2022-09-09T01:51:26;16.70;99.90
11818;DHT22;5966;52.402;5.322;2022-09-09T01:53:54;16.70;99.90
11818;DHT22;5966;52.402;5.322;2022-09-09T01:56:35;16.60;99.90
11818;DHT22;5966;52.402;5.322;2022-09-09T01:59:15;16.70;99.90
11818;DHT22;5966;52.402;5.322;2022-09-09T02:01:55;16.60;99.90
11818;DHT22;5966;52.402;5.322;2022-09-09T02:04:36;16.50;99.90
11818;DHT22;5966;52.402;5.322;2022-09-09T02:07:14;16.50;99.90
11818;DHT22;5966;52.402;5.322;2022-09-09T02:09:51;16.50;99.90
11818;DHT22;5966;52.402;5.322;2022-09-09T02:12:25;16.40;99.90
11818;DHT22;5966;52.402;5.322;2022-09-09T02:14:57;16.40;99.90
11818;DHT22;5966;52.402;5.322;2022-09-09T02:17:30;16.30;99.90
11818;DHT22;5966;52.402;5.322;2022-09-09T02:20:04;16.30;99.90
11818;DHT22;5966;52.402;5.322;2022-09-09T02:22:34;16.30;99.90
11818;DHT22;5966;52.402;5.322;2022-09-09T02:25:05;16.30;99.90
11818;DHT22;5966;52.402;5.322;2022-09-09T02:27:36;16.20;99.90
11818;DHT22;5966;52.402;5.322;2022-09-09T02:30:04;16.20;99.90
11818;DHT22;5966;52.402;5.322;2022-09-09T02:32:34;16.10;99.90
11818;DHT22;5966;52.402;5.322;2022-09-09T02:35:06;16.10;99.90
11818;DHT22;5966;52.402;5.322;2022-09-09T02:37:38;16.10;99.90
11818;DHT22;5966;52.402;5.322;2022-09-09T02:40:08;16.10;99.90
11818;DHT22;5966;52.402;5.322;2022-09-09T02:42:40;16.20;99.90
11818;DHT22;5966;52.402;5.322;2022-09-09T02:45:09;16.20;99.90
11818;DHT22;5966;52.402;5.322;2022-09-09T02:47:40;16.20;99.90
11818;DHT22;5966;52.402;5.322;2022-09-09T02:50:13;16.20;99.90
11818;DHT22;5966;52.402;5.322;2022-09-09T02:52:50;16.20;99.90
11818;DHT22;5966;52.402;5.322;2022-09-09T02:55:24;16.20;99.90
11818;DHT22;5966;52.402;5.322;2022-09-09T02:58:08;16.20;99.90
11818;DHT22;5966;52.402;5.322;2022-09-09T03:00:48;16.10;99.90
11818;DHT22;5966;52.402;5.322;2022-09-09T03:03:22;16.20;99.90
11818;DHT22;5966;52.402;5.322;2022-09-09T03:05:53;16.10;99.90
11818;DHT22;5966;52.402;5.322;2022-09-09T03:08:26;16.10;99.90
11818;DHT22;5966;52.402;5.322;2022-09-09T03:11:01;16.10;99.90
11818;DHT22;5966;52.402;5.322;2022-09-09T03:13:45;16.10;99.90
11818;DHT22;5966;52.402;5.322;2022-09-09T03:16:27;16.10;99.90
11818;DHT22;5966;52.402;5.322;2022-09-09T03:19:02;16.00;99.90
11818;DHT22;5966;52.402;5.322;2022-09-09T03:21:33;16.00;99.90
11818;DHT22;5966;52.402;5.322;2022-09-09T03:24:23;16.00;99.90
11818;DHT22;5966;52.402;5.322;2022-09-09T03:27:04;16.00;99.90
11818;DHT22;5966;52.402;5.322;2022-09-09T03:29:37;16.00;99.90
11818;DHT22;5966;52.402;5.322;2022-09-09T03:32:08;15.90;99.90
11818;DHT22;5966;52.402;5.322;2022-09-09T03:34:40;15.90;99.90
11818;DHT22;5966;52.402;5.322;2022-09-09T03:37:11;15.90;99.90
11818;DHT22;5966;52.402;5.322;2022-09-09T03:39:48;15.80;99.90
11818;DHT22;5966;52.402;5.322;2022-09-09T03:42:28;15.80;99.90
11818;DHT22;5966;52.402;5.322;2022-09-09T03:45:01;15.90;99.90
11818;DHT22;5966;52.402;5.322;2022-09-09T03:47:51;15.90;99.90
11818;DHT22;5966;52.402;5.322;2022-09-09T03:50:46;15.90;99.90
11818;DHT22;5966;52.402;5.322;2022-09-09T03:53:23;15.90;99.90
11818;DHT22;5966;52.402;5.322;2022-09-09T03:55:54;15.90;99.90
11818;DHT22;5966;52.402;5.322;2022-09-09T03:58:31;15.80;99.90
11818;DHT22;5966;52.402;5.322;2022-09-09T04:01:18;15.80;99.90
11818;DHT22;5966;52.402;5.322;2022-09-09T04:04:04;15.70;99.90
11818;DHT22;5966;52.402;5.322;2022-09-09T04:06:52;15.70;99.90
11818;DHT22;5966;52.402;5.322;2022-09-09T04:09:30;15.70;99.90
11818;DHT22;5966;52.402;5.322;2022-09-09T04:12:07;15.60;99.90
11818;DHT22;5966;52.402;5.322;2022-09-09T04:14:42;15.60;99.90
11818;DHT22;5966;52.402;5.322;2022-09-09T04:17:30;15.60;99.90
11818;DHT22;5966;52.402;5.322;2022-09-09T04:20:05;15.60;99.90
11818;DHT22;5966;52.402;5.322;2022-09-09T04:22:46;15.60;99.90
11818;DHT22;5966;52.402;5.322;2022-09-09T04:25:22;15.60;99.90
11818;DHT22;5966;52.402;5.322;2022-09-09T04:28:31;15.50;99.90
11818;DHT22;5966;52.402;5.322;2022-09-09T04:33:53;15.50;99.90
11818;DHT22;5966;52.402;5.322;2022-09-09T04:37:03;15.50;99.90
11818;DHT22;5966;52.402;5.322;2022-09-09T04:40:01;15.50;99.90
11818;DHT22;5966;52.402;5.322;2022-09-09T04:43:15;15.40;99.90
11818;DHT22;5966;52.402;5.322;2022-09-09T04:45:51;15.40;99.90
11818;DHT22;5966;52.402;5.322;2022-09-09T04:49:01;15.40;99.90
11818;DHT22;5966;52.402;5.322;2022-09-09T04:51:59;15.40;99.90
11818;DHT22;5966;52.402;5.322;2022-09-09T04:54:28;15.30;99.90
11818;DHT22;5966;52.402;5.322;2022-09-09T04:57:41;15.30;99.90
11818;DHT22;5966;52.402;5.322;2022-09-09T05:01:17;15.20;99.90
11818;DHT22;5966;52.402;5.322;2022-09-09T05:04:20;15.20;99.90
11818;DHT22;5966;52.402;5.322;2022-09-09T05:07:15;15.20;99.90
11818;DHT22;5966;52.402;5.322;2022-09-09T05:10:20;15.10;99.90
11818;DHT22;5966;52.402;5.322;2022-09-09T05:13:32;15.10;99.90
11818;DHT22;5966;52.402;5.322;2022-09-09T05:16:24;15.10;99.90
11818;DHT22;5966;52.402;5.322;2022-09-09T05:20:29;15.10;99.90
11818;DHT22;5966;52.402;5.322;2022-09-09T05:23:37;15.10;99.90
11818;DHT22;5966;52.402;5.322;2022-09-09T05:26:33;15.10;99.90
11818;DHT22;5966;52.402;5.322;2022-09-09T05:29:13;15.10;99.90
11818;DHT22;5966;52.402;5.322;2022-09-09T05:32:21;15.20;99.90
11818;DHT22;5966;52.402;5.322;2022-09-09T05:35:54;15.30;99.90
11818;DHT22;5966;52.402;5.322;2022-09-09T05:39:07;15.30;99.90
11818;DHT22;5966;52.402;5.322;2022-09-09T05:42:34;15.30;99.90
11818;DHT22;5966;52.402;5.322;2022-09-09T05:45:39;15.30;99.90
11818;DHT22;5966;52.402;5.322;2022-09-09T05:49:11;15.30;99.90
11818;DHT22;5966;52.402;5.322;2022-09-09T05:52:29;15.30;99.90
11818;DHT22;5966;52.402;5.322;2022-09-09T05:56:14;15.30;99.90
11818;DHT22;5966;52.402;5.322;2022-09-09T06:02:31;15.30;99.90
11818;DHT22;5966;52.402;5.322;2022-09-09T06:05:42;15.40;99.90
11818;DHT22;5966;52.402;5.322;2022-09-09T06:08:44;15.40;99.90
11818;DHT22;5966;52.402;5.322;2022-09-09T06:11:55;15.50;99.90
11818;DHT22;5966;52.402;5.322;2022-09-09T06:14:24;15.50;99.90
11818;DHT22;5966;52.402;5.322;2022-09-09T06:17:00;15.60;99.90
11818;DHT22;5966;52.402;5.322;2022-09-09T06:19:56;15.60;99.90
11818;DHT22;5966;52.402;5.322;2022-09-09T06:23:03;15.70;99.90
11818;DHT22;5966;52.402;5.322;2022-09-09T06:26:19;15.80;99.90
11818;DHT22;5966;52.402;5.322;2022-09-09T06:29:16;15.80;99.90
11818;DHT22;5966;52.402;5.322;2022-09-09T06:32:37;15.90;99.90
11818;DHT22;5966;52.402;5.322;2022-09-09T06:35:55;15.90;99.90
11818;DHT22;5966;52.402;5.322;2022-09-09T06:39:14;16.00;99.90
11818;DHT22;5966;52.402;5.322;2022-09-09T06:41:52;16.10;99.90
11818;DHT22;5966;52.402;5.322;2022-09-09T06:45:06;16.10;99.90
11818;DHT22;5966;52.402;5.322;2022-09-09T06:53:03;16.20;99.90
11818;DHT22;5966;52.402;5.322;2022-09-09T07:00:46;16.50;99.90
11818;DHT22;5966;52.402;5.322;2022-09-09T07:04:26;16.60;99.90
11818;DHT22;5966;52.402;5.322;2022-09-09T07:07:38;16.70;99.90
11818;DHT22;5966;52.402;5.322;2022-09-09T07:10:26;16.80;99.90
11818;DHT22;5966;52.402;5.322;2022-09-09T07:13:52;16.90;99.90
11818;DHT22;5966;52.402;5.322;2022-09-09T07:17:12;16.90;99.90
11818;DHT22;5966;52.402;5.322;2022-09-09T07:20:40;16.90;99.90
11818;DHT22;5966;52.402;5.322;2022-09-09T07:23:45;17.00;99.90
11818;DHT22;5966;52.402;5.322;2022-09-09T07:31:20;17.00;99.90
11818;DHT22;5966;52.402;5.322;2022-09-09T07:35:04;17.00;99.90
11818;DHT22;5966;52.402;5.322;2022-09-09T08:14:06;17.40;99.90
11818;DHT22;5966;52.402;5.322;2022-09-09T08:19:39;17.40;99.90
11818;DHT22;5966;52.402;5.322;2022-09-09T08:22:42;17.40;99.90
11818;DHT22;5966;52.402;5.322;2022-09-09T08:25:54;17.40;99.90
11818;DHT22;5966;52.402;5.322;2022-09-09T08:28:54;17.40;99.90
11818;DHT22;5966;52.402;5.322;2022-09-09T08:32:06;17.40;99.90
11818;DHT22;5966;52.402;5.322;2022-09-09T08:35:02;17.40;99.90
11818;DHT22;5966;52.402;5.322;2022-09-09T08:37:42;17.40;99.90
11818;DHT22;5966;52.402;5.322;2022-09-09T08:40:38;17.40;99.90
11818;DHT22;5966;52.402;5.322;2022-09-09T08:46:11;17.40;99.90
11818;DHT22;5966;52.402;5.322;2022-09-09T08:49:24;17.40;99.90
11818;DHT22;5966;52.402;5.322;2022-09-09T08:52:47;17.40;99.90
11818;DHT22;5966;52.402;5.322;2022-09-09T08:55:53;17.40;99.90
11818;DHT22;5966;52.402;5.322;2022-09-09T08:58:51;17.40;99.90
11818;DHT22;5966;52.402;5.322;2022-09-09T09:02:20;17.30;99.90
11818;DHT22;5966;52.402;5.322;2022-09-09T09:05:25;17.30;99.90
11818;DHT22;5966;52.402;5.322;2022-09-09T09:08:46;17.30;99.90
11818;DHT22;5966;52.402;5.322;2022-09-09T09:11:43;17.30;99.90
11818;DHT22;5966;52.402;5.322;2022-09-09T09:14:41;17.30;99.90
11818;DHT22;5966;52.402;5.322;2022-09-09T09:17:39;17.30;99.90
11818;DHT22;5966;52.402;5.322;2022-09-09T09:28:48;17.40;99.90
11818;DHT22;5966;52.402;5.322;2022-09-09T09:32:21;17.50;99.90
11818;DHT22;5966;52.402;5.322;2022-09-09T09:36:07;17.50;99.90
11818;DHT22;5966;52.402;5.322;2022-09-09T09:39:27;17.50;99.90
11818;DHT22;5966;52.402;5.322;2022-09-09T09:42:56;17.50;99.90
11818;DHT22;5966;52.402;5.322;2022-09-09T09:45:52;17.50;99.90
11818;DHT22;5966;52.402;5.322;2022-09-09T09:49:22;17.50;99.90
11818;DHT22;5966;52.402;5.322;2022-09-09T09:52:05;17.50;99.90
11818;DHT22;5966;52.402;5.322;2022-09-09T09:57:40;17.50;99.90
11818;DHT22;5966;52.402;5.322;2022-09-09T10:01:29;17.50;99.90
11818;DHT22;5966;52.402;5.322;2022-09-09T10:04:44;17.50;99.90
11818;DHT22;5966;52.402;5.322;2022-09-09T10:07:32;17.50;99.90
11818;DHT22;5966;52.402;5.322;2022-09-09T10:10:24;17.40;99.90
11818;DHT22;5966;52.402;5.322;2022-09-09T10:13:01;17.50;99.90
11818;DHT22;5966;52.402;5.322;2022-09-09T10:16:02;17.40;99.90
11818;DHT22;5966;52.402;5.322;2022-09-09T10:19:20;17.40;99.90
11818;DHT22;5966;52.402;5.322;2022-09-09T10:22:18;17.40;99.90
11818;DHT22;5966;52.402;5.322;2022-09-09T10:25:18;17.40;99.90
11818;DHT22;5966;52.402;5.322;2022-09-09T10:28:09;17.50;99.90
11818;DHT22;5966;52.402;5.322;2022-09-09T10:30:54;17.50;99.90
11818;DHT22;5966;52.402;5.322;2022-09-09T10:34:10;17.50;99.90
11818;DHT22;5966;52.402;5.322;2022-09-09T10:36:57;17.40;99.90
11818;DHT22;5966;52.402;5.322;2022-09-09T10:39:35;17.30;99.90
11818;DHT22;5966;52.402;5.322;2022-09-09T10:42:11;17.30;99.90
11818;DHT22;5966;52.402;5.322;2022-09-09T10:44:54;17.40;99.90
11818;DHT22;5966;52.402;5.322;2022-09-09T10:48:00;17.40;99.90
11818;DHT22;5966;52.402;5.322;2022-09-09T10:51:13;17.50;99.90
11818;DHT22;5966;52.402;5.322;2022-09-09T10:54:05;17.60;99.90
11818;DHT22;5966;52.402;5.322;2022-09-09T10:56:39;17.70;99.90
11818;DHT22;5966;52.402;5.322;2022-09-09T10:59:12;17.80;99.90
11818;DHT22;5966;52.402;5.322;2022-09-09T11:01:44;18.00;99.90
11818;DHT22;5966;52.402;5.322;2022-09-09T11:04:20;18.00;99.90
11818;DHT22;5966;52.402;5.322;2022-09-09T11:07:01;18.10;99.90
11818;DHT22;5966;52.402;5.322;2022-09-09T11:09:41;18.10;99.90
11818;DHT22;5966;52.402;5.322;2022-09-09T11:12:17;18.00;99.90
11818;DHT22;5966;52.402;5.322;2022-09-09T11:14:51;18.00;99.90
11818;DHT22;5966;52.402;5.322;2022-09-09T11:17:30;18.10;99.90
11818;DHT22;5966;52.402;5.322;2022-09-09T11:20:01;18.10;99.90
11818;DHT22;5966;52.402;5.322;2022-09-09T11:22:44;18.10;99.90
11818;DHT22;5966;52.402;5.322;2022-09-09T11:25:17;18.20;99.90
11818;DHT22;5966;52.402;5.322;2022-09-09T11:27:57;18.30;99.90
11818;DHT22;5966;52.402;5.322;2022-09-09T11:30:33;18.30;99.90
11818;DHT22;5966;52.402;5.322;2022-09-09T11:33:42;18.30;99.90
11818;DHT22;5966;52.402;5.322;2022-09-09T11:36:41;18.30;99.90
11818;DHT22;5966;52.402;5.322;2022-09-09T11:39:42;18.40;99.90
11818;DHT22;5966;52.402;5.322;2022-09-09T11:42:19;18.40;99.90
11818;DHT22;5966;52.402;5.322;2022-09-09T11:44:47;18.40;99.90
11818;DHT22;5966;52.402;5.322;2022-09-09T11:47:23;18.40;99.90
11818;DHT22;5966;52.402;5.322;2022-09-09T11:50:09;18.40;99.90
11818;DHT22;5966;52.402;5.322;2022-09-09T11:52:43;18.40;99.90
11818;DHT22;5966;52.402;5.322;2022-09-09T11:55:26;18.40;99.90
11818;DHT22;5966;52.402;5.322;2022-09-09T11:57:58;18.50;99.90
11818;DHT22;5966;52.402;5.322;2022-09-09T12:00:35;18.50;99.90
11818;DHT22;5966;52.402;5.322;2022-09-09T12:03:06;18.50;99.90
11818;DHT22;5966;52.402;5.322;2022-09-09T12:05:39;18.50;99.90
11818;DHT22;5966;52.402;5.322;2022-09-09T12:08:21;18.50;99.90
11818;DHT22;5966;52.402;5.322;2022-09-09T12:10:59;18.40;99.90
11818;DHT22;5966;52.402;5.322;2022-09-09T12:13:30;18.40;99.90
11818;DHT22;5966;52.402;5.322;2022-09-09T12:15:59;18.40;99.90
11818;DHT22;5966;52.402;5.322;2022-09-09T12:18:34;18.40;99.90
11818;DHT22;5966;52.402;5.322;2022-09-09T12:21:07;18.30;99.90
11818;DHT22;5966;52.402;5.322;2022-09-09T12:23:45;18.40;99.90
11818;DHT22;5966;52.402;5.322;2022-09-09T12:26:30;18.40;99.90
11818;DHT22;5966;52.402;5.322;2022-09-09T12:29:15;18.40;99.90
11818;DHT22;5966;52.402;5.322;2022-09-09T12:31:51;18.50;99.90
11818;DHT22;5966;52.402;5.322;2022-09-09T12:34:38;18.50;99.90
11818;DHT22;5966;52.402;5.322;2022-09-09T12:37:15;18.50;99.90
11818;DHT22;5966;52.402;5.322;2022-09-09T12:39:49;18.40;99.90
11818;DHT22;5966;52.402;5.322;2022-09-09T12:42:24;18.40;99.90
11818;DHT22;5966;52.402;5.322;2022-09-09T12:44:57;18.50;99.90
11818;DHT22;5966;52.402;5.322;2022-09-09T12:47:32;18.50;99.90
11818;DHT22;5966;52.402;5.322;2022-09-09T12:50:03;18.50;99.90
11818;DHT22;5966;52.402;5.322;2022-09-09T12:52:34;18.60;99.90
11818;DHT22;5966;52.402;5.322;2022-09-09T12:55:06;18.50;99.90
11818;DHT22;5966;52.402;5.322;2022-09-09T12:57:39;18.60;99.90
11818;DHT22;5966;52.402;5.322;2022-09-09T13:00:14;18.70;99.90
11818;DHT22;5966;52.402;5.322;2022-09-09T13:02:47;18.80;99.90
11818;DHT22;5966;52.402;5.322;2022-09-09T13:05:19;18.80;99.90
11818;DHT22;5966;52.402;5.322;2022-09-09T13:07:48;18.90;99.90
11818;DHT22;5966;52.402;5.322;2022-09-09T13:10:24;19.00;99.90
11818;DHT22;5966;52.402;5.322;2022-09-09T13:13:14;19.00;99.90
11818;DHT22;5966;52.402;5.322;2022-09-09T13:15:49;19.00;99.90
11818;DHT22;5966;52.402;5.322;2022-09-09T13:18:23;18.90;99.90
11818;DHT22;5966;52.402;5.322;2022-09-09T13:20:52;18.80;99.90
11818;DHT22;5966;52.402;5.322;2022-09-09T13:23:21;18.70;99.90
11818;DHT22;5966;52.402;5.322;2022-09-09T13:25:56;18.70;99.90
11818;DHT22;5966;52.402;5.322;2022-09-09T13:28:28;18.70;99.90
11818;DHT22;5966;52.402;5.322;2022-09-09T13:31:01;18.60;99.90
11818;DHT22;5966;52.402;5.322;2022-09-09T13:33:32;18.70;99.90
11818;DHT22;5966;52.402;5.322;2022-09-09T13:36:04;18.60;99.90
11818;DHT22;5966;52.402;5.322;2022-09-09T13:38:35;18.70;99.90
11818;DHT22;5966;52.402;5.322;2022-09-09T13:41:06;18.60;99.90
11818;DHT22;5966;52.402;5.322;2022-09-09T13:43:45;18.60;99.90
11818;DHT22;5966;52.402;5.322;2022-09-09T13:46:32;18.60;99.90
11818;DHT22;5966;52.402;5.322;2022-09-09T13:49:02;18.50;99.90
11818;DHT22;5966;52.402;5.322;2022-09-09T13:51:46;18.50;99.90
11818;DHT22;5966;52.402;5.322;2022-09-09T13:54:18;18.40;99.90
11818;DHT22;5966;52.402;5.322;2022-09-09T13:56:47;18.40;99.90
11818;DHT22;5966;52.402;5.322;2022-09-09T13:59:19;18.40;99.90
11818;DHT22;5966;52.402;5.322;2022-09-09T14:01:48;18.40;99.90
11818;DHT22;5966;52.402;5.322;2022-09-09T14:04:19;18.40;99.90
11818;DHT22;5966;52.402;5.322;2022-09-09T14:06:48;18.40;99.90
11818;DHT22;5966;52.402;5.322;2022-09-09T14:09:17;18.40;99.90
11818;DHT22;5966;52.402;5.322;2022-09-09T14:11:45;18.50;99.90
11818;DHT22;5966;52.402;5.322;2022-09-09T14:14:13;18.50;99.90
11818;DHT22;5966;52.402;5.322;2022-09-09T14:16:45;18.50;99.90
11818;DHT22;5966;52.402;5.322;2022-09-09T14:19:15;18.50;99.90
11818;DHT22;5966;52.402;5.322;2022-09-09T14:21:45;18.50;99.90
11818;DHT22;5966;52.402;5.322;2022-09-09T14:24:17;18.50;99.90
11818;DHT22;5966;52.402;5.322;2022-09-09T14:26:45;18.50;99.90
11818;DHT22;5966;52.402;5.322;2022-09-09T14:29:18;18.50;99.90
11818;DHT22;5966;52.402;5.322;2022-09-09T14:31:48;18.50;99.90
11818;DHT22;5966;52.402;5.322;2022-09-09T14:34:16;18.50;99.90
11818;DHT22;5966;52.402;5.322;2022-09-09T14:36:45;18.40;99.90
11818;DHT22;5966;52.402;5.322;2022-09-09T14:39:14;18.40;99.90
11818;DHT22;5966;52.402;5.322;2022-09-09T14:41:44;18.30;99.90
11818;DHT22;5966;52.402;5.322;2022-09-09T14:44:15;18.40;99.90
11818;DHT22;5966;52.402;5.322;2022-09-09T14:46:43;18.40;99.90
11818;DHT22;5966;52.402;5.322;2022-09-09T14:49:13;18.40;99.90
11818;DHT22;5966;52.402;5.322;2022-09-09T14:51:43;18.50;99.90
11818;DHT22;5966;52.402;5.322;2022-09-09T14:54:14;18.50;99.90
11818;DHT22;5966;52.402;5.322;2022-09-09T14:56:43;18.50;99.90
11818;DHT22;5966;52.402;5.322;2022-09-09T14:59:11;18.50;99.90
11818;DHT22;5966;52.402;5.322;2022-09-09T15:01:47;18.40;99.90
11818;DHT22;5966;52.402;5.322;2022-09-09T15:04:18;18.50;99.90
11818;DHT22;5966;52.402;5.322;2022-09-09T15:06:49;18.40;99.90
11818;DHT22;5966;52.402;5.322;2022-09-09T15:09:23;18.40;99.90
11818;DHT22;5966;52.402;5.322;2022-09-09T15:12:01;18.40;99.90
11818;DHT22;5966;52.402;5.322;2022-09-09T15:14:49;18.50;99.90
11818;DHT22;5966;52.402;5.322;2022-09-09T15:17:29;18.50;99.90
11818;DHT22;5966;52.402;5.322;2022-09-09T15:20:13;18.60;99.90
11818;DHT22;5966;52.402;5.322;2022-09-09T15:22:58;18.60;99.90
11818;DHT22;5966;52.402;5.322;2022-09-09T15:25:31;18.60;99.90
11818;DHT22;5966;52.402;5.322;2022-09-09T15:28:12;18.70;99.90
11818;DHT22;5966;52.402;5.322;2022-09-09T15:31:07;18.60;99.90
11818;DHT22;5966;52.402;5.322;2022-09-09T15:33:49;18.60;99.90
11818;DHT22;5966;52.402;5.322;2022-09-09T15:36:46;18.50;99.90
11818;DHT22;5966;52.402;5.322;2022-09-09T15:39:27;18.60;99.90
11818;DHT22;5966;52.402;5.322;2022-09-09T15:42:07;18.50;99.90
11818;DHT22;5966;52.402;5.322;2022-09-09T15:44:47;18.60;99.90
11818;DHT22;5966;52.402;5.322;2022-09-09T15:47:25;18.60;99.90
11818;DHT22;5966;52.402;5.322;2022-09-09T15:50:12;18.60;99.90
11818;DHT22;5966;52.402;5.322;2022-09-09T15:55:47;18.50;99.90
11818;DHT22;5966;52.402;5.322;2022-09-09T15:58:31;18.50;99.90
11818;DHT22;5966;52.402;5.322;2022-09-09T16:01:19;18.50;99.90
11818;DHT22;5966;52.402;5.322;2022-09-09T16:03:54;18.50;99.90
11818;DHT22;5966;52.402;5.322;2022-09-09T16:06:27;18.50;99.90
11818;DHT22;5966;52.402;5.322;2022-09-09T16:09:11;18.40;99.90
11818;DHT22;5966;52.402;5.322;2022-09-09T16:11:47;18.40;99.90
11818;DHT22;5966;52.402;5.322;2022-09-09T16:14:24;18.40;99.90
11818;DHT22;5966;52.402;5.322;2022-09-09T16:16:57;18.40;99.90
11818;DHT22;5966;52.402;5.322;2022-09-09T16:19:28;18.40;99.90
11818;DHT22;5966;52.402;5.322;2022-09-09T16:22:00;18.40;99.90
11818;DHT22;5966;52.402;5.322;2022-09-09T16:24:31;18.40;99.90
11818;DHT22;5966;52.402;5.322;2022-09-09T16:26:59;18.40;99.90
11818;DHT22;5966;52.402;5.322;2022-09-09T16:29:30;18.40;99.90
11818;DHT22;5966;52.402;5.322;2022-09-09T16:32:06;18.40;99.90
11818;DHT22;5966;52.402;5.322;2022-09-09T16:34:36;18.50;99.90
11818;DHT22;5966;52.402;5.322;2022-09-09T16:37:09;18.50;99.90
11818;DHT22;5966;52.402;5.322;2022-09-09T16:39:41;18.50;99.90
11818;DHT22;5966;52.402;5.322;2022-09-09T16:42:10;18.50;99.90
11818;DHT22;5966;52.402;5.322;2022-09-09T16:44:51;18.50;99.90
11818;DHT22;5966;52.402;5.322;2022-09-09T16:47:29;18.50;99.90
11818;DHT22;5966;52.402;5.322;2022-09-09T16:50:06;18.50;99.90
11818;DHT22;5966;52.402;5.322;2022-09-09T16:52:38;18.40;99.90
11818;DHT22;5966;52.402;5.322;2022-09-09T16:55:22;18.40;99.90
11818;DHT22;5966;52.402;5.322;2022-09-09T16:58:06;18.40;99.90
11818;DHT22;5966;52.402;5.322;2022-09-09T17:00:37;18.30;99.90
11818;DHT22;5966;52.402;5.322;2022-09-09T17:03:10;18.30;99.90
11818;DHT22;5966;52.402;5.322;2022-09-09T17:05:46;18.30;99.90
11818;DHT22;5966;52.402;5.322;2022-09-09T17:08:29;18.30;99.90
11818;DHT22;5966;52.402;5.322;2022-09-09T17:11:12;18.30;99.90
11818;DHT22;5966;52.402;5.322;2022-09-09T17:16:34;18.20;99.90
11818;DHT22;5966;52.402;5.322;2022-09-09T17:19:03;18.10;99.90
11818;DHT22;5966;52.402;5.322;2022-09-09T17:21:32;18.00;99.90
11818;DHT22;5966;52.402;5.322;2022-09-09T17:24:01;18.00;99.90
11818;DHT22;5966;52.402;5.322;2022-09-09T17:26:32;17.90;99.90
11818;DHT22;5966;52.402;5.322;2022-09-09T17:29:03;17.90;99.90
11818;DHT22;5966;52.402;5.322;2022-09-09T17:31:33;17.90;99.90
11818;DHT22;5966;52.402;5.322;2022-09-09T17:34:01;17.80;99.90
11818;DHT22;5966;52.402;5.322;2022-09-09T17:36:32;17.80;99.90
11818;DHT22;5966;52.402;5.322;2022-09-09T17:39:04;17.80;99.90
11818;DHT22;5966;52.402;5.322;2022-09-09T17:41:35;17.80;99.90
11818;DHT22;5966;52.402;5.322;2022-09-09T17:44:06;17.70;99.90
11818;DHT22;5966;52.402;5.322;2022-09-09T17:46:39;17.70;99.90
11818;DHT22;5966;52.402;5.322;2022-09-09T17:49:09;17.70;99.90
11818;DHT22;5966;52.402;5.322;2022-09-09T17:51:39;17.70;99.90
11818;DHT22;5966;52.402;5.322;2022-09-09T17:54:10;17.70;99.90
11818;DHT22;5966;52.402;5.322;2022-09-09T17:56:43;17.70;99.90
11818;DHT22;5966;52.402;5.322;2022-09-09T17:59:13;17.70;99.90
11818;DHT22;5966;52.402;5.322;2022-09-09T18:01:46;17.70;99.90
11818;DHT22;5966;52.402;5.322;2022-09-09T18:04:16;17.70;99.90
11818;DHT22;5966;52.402;5.322;2022-09-09T18:06:47;17.70;99.90
11818;DHT22;5966;52.402;5.322;2022-09-09T18:09:17;17.70;99.90
11818;DHT22;5966;52.402;5.322;2022-09-09T18:11:49;17.70;99.90
11818;DHT22;5966;52.402;5.322;2022-09-09T18:14:19;17.70;99.90
11818;DHT22;5966;52.402;5.322;2022-09-09T18:16:49;17.70;99.90
11818;DHT22;5966;52.402;5.322;2022-09-09T18:19:19;17.70;99.90
11818;DHT22;5966;52.402;5.322;2022-09-09T18:21:47;17.70;99.90
11818;DHT22;5966;52.402;5.322;2022-09-09T18:24:20;17.60;99.90
11818;DHT22;5966;52.402;5.322;2022-09-09T18:26:50;17.60;99.90
11818;DHT22;5966;52.402;5.322;2022-09-09T18:29:20;17.60;99.90
11818;DHT22;5966;52.402;5.322;2022-09-09T18:31:54;17.50;99.90
11818;DHT22;5966;52.402;5.322;2022-09-09T18:34:22;17.50;99.90
11818;DHT22;5966;52.402;5.322;2022-09-09T18:36:54;17.40;99.90
11818;DHT22;5966;52.402;5.322;2022-09-09T18:39:25;17.40;99.90
11818;DHT22;5966;52.402;5.322;2022-09-09T18:41:56;17.40;99.90
11818;DHT22;5966;52.402;5.322;2022-09-09T18:44:29;17.40;99.90